Amber, Washington
Current Conditions -  °F | °C
As of 12:58 PM on Friday 19 Dec 2014 (Local Time) from KSKA Reporting Station
Overcast Overcast  
Wind Chill: 30°   Ceiling: 1100
Heat Index: 39°   Visibility: 10mi
Dew Point: 37°   Wind: 16mph
Humidity: 93%   Direction: 200°SSW
Pressure: 29.89"   Gusts: 24mph
Location:  47.411°N, 117.628°W
Report Text: KSKA 192058Z AUTO 20014G21KT 10SM BKN011 OVC017 04/03 A2989 RMK AO2 UPE18UPB31E49 SLP138 P0000 60000 52010
Loading
Personal Weather Stations






























Interactive Weather Map New forecast layout! Learn more

10-Day Weather Forecast

Advertisements
Track Severe Weather on mobile